Time;durP1;ratioP1;P1;durP2;ratioP2;P2;SDS_P1;SDS_P2;PMS_P1;PMS_P2;Temp;Humidity;BMP_temperature;BMP_pressure;BME280_temperature;BME280_humidity;BME280_pressure;Samples;Min_cycle;Max_cycle;Signal;HPM_P1;HPM_P2
2024/01/25 00:00:18;;;;;;;62.85;11.60;;;;;;;8.51;100.00;102648.72;5092556;27;20070;-74
2024/01/25 00:02:44;;;;;;;59.22;10.93;;;;;;;8.42;100.00;102633.84;5094831;27;20024;-74
2024/01/25 00:05:10;;;;;;;54.88;10.70;;;;;;;8.39;100.00;102631.28;5095261;27;20027;-74
2024/01/25 00:07:45;;;;;;;60.45;12.52;;;;;;;8.40;100.00;102626.84;5077219;27;20039;-73
2024/01/25 00:10:11;;;;;;;52.97;11.15;;;;;;;8.21;100.00;102629.91;5097488;27;20779;-73
2024/01/25 00:12:37;;;;;;;55.40;9.98;;;;;;;8.13;100.00;102636.31;5097201;27;20402;-73
2024/01/25 00:15:04;;;;;;;75.88;11.65;;;;;;;8.04;100.00;102640.97;5088029;27;20026;-74
2024/01/25 00:17:30;;;;;;;57.05;11.40;;;;;;;7.94;100.00;102646.53;5093154;27;20031;-74
2024/01/25 00:19:56;;;;;;;46.65;9.65;;;;;;;7.91;100.00;102652.78;5088433;27;20053;-73
2024/01/25 00:22:21;;;;;;;65.63;10.90;;;;;;;7.92;100.00;102648.34;5109646;27;20126;-74
2024/01/25 00:24:47;;;;;;;54.42;9.48;;;;;;;7.83;100.00;102653.84;5097960;27;20043;-73
2024/01/25 00:27:12;;;;;;;61.08;10.38;;;;;;;7.73;100.00;102647.88;5068777;27;20047;-73
2024/01/25 00:29:38;;;;;;;51.47;10.48;;;;;;;7.64;100.00;102650.75;5099281;27;20172;-74
2024/01/25 00:32:04;;;;;;;71.55;10.77;;;;;;;7.51;100.00;102656.31;5094836;27;20172;-74
2024/01/25 00:34:30;;;;;;;53.55;9.43;;;;;;;7.52;100.00;102660.72;5091287;27;20533;-74
2024/01/25 00:36:56;;;;;;;56.35;9.80;;;;;;;7.46;100.00;102657.31;5095927;27;20036;-74
2024/01/25 00:39:22;;;;;;;60.85;10.70;;;;;;;7.40;100.00;102661.00;5098044;27;20043;-74
2024/01/25 00:41:51;;;;;;;55.40;11.65;;;;;;;7.46;100.00;102659.97;5096556;27;20045;-73
2024/01/25 00:44:17;;;;;;;55.92;11.50;;;;;;;7.45;100.00;102669.72;5071187;27;20216;-73
2024/01/25 00:46:45;;;;;;;54.13;9.98;;;;;;;7.45;100.00;102671.50;5088527;27;20034;-73
2024/01/25 00:49:12;;;;;;;55.92;9.70;;;;;;;7.38;100.00;102669.88;5100623;27;20030;-73
2024/01/25 00:51:41;;;;;;;57.75;10.63;;;;;;;7.32;100.00;102667.34;5099598;27;20707;-73
2024/01/25 00:54:07;;;;;;;49.00;11.27;;;;;;;7.36;100.00;102669.03;5091441;27;20025;-73
2024/01/25 00:56:34;;;;;;;60.10;9.88;;;;;;;7.30;100.00;102675.34;5097961;27;20113;-73
2024/01/25 00:58:59;;;;;;;58.15;10.30;;;;;;;7.28;100.00;102677.19;5101649;27;20039;-73
2024/01/25 01:01:26;;;;;;;54.50;10.00;;;;;;;7.19;100.00;102680.00;5086278;27;20040;-73
2024/01/25 01:03:52;;;;;;;63.58;11.00;;;;;;;7.18;100.00;102683.56;5100157;27;20082;-73
2024/01/25 01:06:20;;;;;;;50.50;10.77;;;;;;;7.19;100.00;102682.66;5097455;27;20028;-73
2024/01/25 01:08:46;;;;;;;56.97;9.73;;;;;;;7.13;100.00;102681.00;5101309;27;20037;-73
2024/01/25 01:11:12;;;;;;;57.40;9.85;;;;;;;7.14;100.00;102684.53;5095621;27;20540;-73
2024/01/25 01:13:38;;;;;;;74.82;10.95;;;;;;;7.09;100.00;102702.31;5098735;27;20039;-73
2024/01/25 01:16:04;;;;;;;55.28;11.73;;;;;;;7.12;100.00;102703.09;5091813;27;20087;-73
2024/01/25 01:18:30;;;;;;;60.15;10.73;;;;;;;7.11;100.00;102697.84;5100836;27;20055;-73
2024/01/25 01:20:55;;;;;;;65.15;9.48;;;;;;;7.10;100.00;102698.75;5096727;27;20043;-73
2024/01/25 01:23:21;;;;;;;47.50;8.85;;;;;;;7.09;100.00;102697.88;5077859;27;20032;-73
2024/01/25 01:25:47;;;;;;;63.03;10.98;;;;;;;7.02;100.00;102704.19;5104706;27;20027;-73
2024/01/25 01:28:12;;;;;;;65.05;10.95;;;;;;;6.93;100.00;102699.94;5088253;27;20036;-73
2024/01/25 01:30:41;;;;;;;56.72;10.18;;;;;;;6.89;100.00;102703.56;5094590;27;20036;-73
2024/01/25 01:33:08;;;;;;;53.30;10.80;;;;;;;6.86;100.00;102715.97;5081787;28;20429;-74
2024/01/25 01:35:34;;;;;;;56.70;11.57;;;;;;;6.84;100.00;102720.44;5085392;27;20029;-73
2024/01/25 01:37:59;;;;;;;56.95;9.82;;;;;;;6.86;100.00;102721.28;5096250;27;20042;-74
2024/01/25 01:40:25;;;;;;;43.70;10.38;;;;;;;6.90;100.00;102722.97;5105151;27;20040;-73
2024/01/25 01:42:50;;;;;;;57.80;12.18;;;;;;;6.69;100.00;102716.28;5082712;27;20074;-73
2024/01/25 01:45:16;;;;;;;55.88;10.85;;;;;;;6.69;100.00;102722.47;5079236;27;20948;-74
2024/01/25 01:47:42;;;;;;;48.72;8.25;;;;;;;6.70;100.00;102726.84;5097690;27;20032;-74
2024/01/25 01:50:09;;;;;;;63.00;10.75;;;;;;;6.66;100.00;102729.56;5098634;27;20964;-73
2024/01/25 01:52:35;;;;;;;66.78;14.02;;;;;;;6.67;100.00;102729.53;5081147;28;20032;-74
2024/01/25 01:55:02;;;;;;;56.47;11.57;;;;;;;6.65;100.00;102734.00;5088416;27;20543;-74
2024/01/25 01:57:29;;;;;;;67.30;10.48;;;;;;;6.62;100.00;102749.94;5091667;27;20062;-73
2024/01/25 01:59:57;;;;;;;53.25;10.95;;;;;;;6.58;100.00;102740.31;5099280;27;20413;-73
2024/01/25 02:02:23;;;;;;;55.95;8.48;;;;;;;6.55;100.00;102750.97;5096212;27;20104;-74
2024/01/25 02:04:49;;;;;;;59.17;9.98;;;;;;;6.56;100.00;102750.06;5088520;27;20027;-73
2024/01/25 02:07:14;;;;;;;61.33;9.38;;;;;;;6.49;100.00;102743.97;5091576;27;20074;-74
2024/01/25 02:09:40;;;;;;;61.10;10.32;;;;;;;6.46;100.00;102751.09;5075872;27;20109;-73
2024/01/25 02:12:06;;;;;;;57.15;10.82;;;;;;;6.42;100.00;102760.88;5095585;27;20109;-73
2024/01/25 02:14:34;;;;;;;59.25;10.18;;;;;;;6.44;100.00;102750.25;5101057;27;20032;-73
2024/01/25 02:16:59;;;;;;;58.40;10.23;;;;;;;6.36;100.00;102760.09;5100110;27;20096;-72
2024/01/25 02:19:25;;;;;;;64.25;11.45;;;;;;;6.39;100.00;102760.94;5114861;27;20672;-74
2024/01/25 02:21:53;;;;;;;58.17;10.70;;;;;;;6.39;100.00;102765.34;5105079;27;20032;-74
2024/01/25 02:24:19;;;;;;;61.10;10.90;;;;;;;6.35;100.00;102759.22;5102859;27;20074;-74
2024/01/25 02:26:45;;;;;;;53.75;10.65;;;;;;;6.28;100.00;102762.00;5087534;27;20037;-74
2024/01/25 02:29:10;;;;;;;66.43;11.32;;;;;;;6.27;100.00;102761.09;5099808;27;20042;-74
2024/01/25 02:31:36;;;;;;;62.00;10.75;;;;;;;6.31;100.00;102759.28;5096459;27;20044;-74
2024/01/25 02:34:01;;;;;;;66.40;12.27;;;;;;;6.27;100.00;102757.56;5094414;27;20032;-74
2024/01/25 02:36:27;;;;;;;64.60;12.80;;;;;;;6.26;100.00;102756.69;5092937;27;20044;-73
2024/01/25 02:38:52;;;;;;;51.83;10.90;;;;;;;6.28;100.00;102762.88;5099040;27;20040;-73
2024/01/25 02:41:18;;;;;;;51.03;9.77;;;;;;;6.25;100.00;102778.78;5099749;27;20040;-73
2024/01/25 02:43:43;;;;;;;50.47;11.50;;;;;;;6.26;100.00;102771.72;5099349;27;20835;-74
2024/01/25 02:46:09;;;;;;;54.33;9.55;;;;;;;6.35;100.00;102766.28;5092200;27;20028;-72
2024/01/25 02:48:35;;;;;;;51.13;9.02;;;;;;;6.28;100.00;102762.88;5110611;27;20051;-72
2024/01/25 02:51:00;;;;;;;61.47;11.45;;;;;;;6.25;100.00;102757.59;5100400;27;20164;-74
2024/01/25 02:53:26;;;;;;;69.32;11.45;;;;;;;6.23;100.00;102762.06;5092639;27;20032;-73
2024/01/25 02:55:51;;;;;;;60.20;11.80;;;;;;;6.17;100.00;102773.59;5102081;27;20036;-74
2024/01/25 02:58:17;;;;;;;54.10;9.13;;;;;;;6.20;100.00;102772.69;5101123;27;20469;-73
2024/01/25 03:00:42;;;;;;;63.20;10.65;;;;;;;6.17;100.00;102772.72;5095482;27;20066;-74
2024/01/25 03:03:08;;;;;;;66.93;10.70;;;;;;;6.17;100.00;102772.72;5096463;27;20165;-74
2024/01/25 03:05:34;;;;;;;63.83;9.98;;;;;;;6.19;100.00;102771.81;5079306;28;20067;-74
2024/01/25 03:08:00;;;;;;;66.45;10.48;;;;;;;6.13;100.00;102771.91;5093544;27;20106;-74
2024/01/25 03:10:26;;;;;;;56.20;10.88;;;;;;;6.12;100.00;102772.78;5087001;27;20028;-73
2024/01/25 03:12:51;;;;;;;54.47;10.32;;;;;;;6.02;100.00;102768.50;5076929;27;20044;-73
2024/01/25 03:15:17;;;;;;;62.33;9.77;;;;;;;6.09;100.00;102764.03;5076019;27;20040;-73
2024/01/25 03:17:43;;;;;;;55.00;10.48;;;;;;;6.05;100.00;102771.13;5090334;27;20487;-73
2024/01/25 03:20:09;;;;;;;48.78;9.95;;;;;;;5.98;100.00;102756.22;5077279;27;20237;-73
2024/01/25 03:22:35;;;;;;;54.72;10.68;;;;;;;5.95;100.00;102769.50;5100509;27;20535;-73
2024/01/25 03:25:00;;;;;;;60.78;10.52;;;;;;;5.92;100.00;102758.94;5073245;27;20047;-73
2024/01/25 03:27:26;;;;;;;56.80;9.80;;;;;;;5.90;100.00;102766.00;5091893;27;20255;-73
2024/01/25 03:29:52;;;;;;;54.75;9.35;;;;;;;5.87;100.00;102764.28;5082270;27;20113;-73
2024/01/25 03:32:17;;;;;;;64.28;10.15;;;;;;;5.90;100.00;102769.50;5092121;27;20048;-73
2024/01/25 03:34:43;;;;;;;56.70;9.65;;;;;;;5.85;100.00;102774.00;5076972;27;20040;-73
2024/01/25 03:37:09;;;;;;;56.22;9.57;;;;;;;5.80;100.00;102782.91;5071611;27;20576;-73
2024/01/25 03:39:35;;;;;;;75.55;11.48;;;;;;;5.76;100.00;102781.16;5085483;27;20143;-73
2024/01/25 03:42:01;;;;;;;67.55;12.07;;;;;;;5.78;100.00;102793.50;5094705;27;20040;-73
2024/01/25 03:44:26;;;;;;;59.47;9.50;;;;;;;5.76;100.00;102778.53;5094496;27;20553;-73
2024/01/25 03:46:52;;;;;;;55.72;9.93;;;;;;;5.74;100.00;102777.69;5081547;27;20033;-73
2024/01/25 03:49:18;;;;;;;63.58;11.77;;;;;;;5.68;100.00;102774.22;5091458;27;20044;-73
2024/01/25 03:51:44;;;;;;;56.92;11.13;;;;;;;5.65;100.00;102773.38;5093415;27;20123;-73
2024/01/25 03:54:10;;;;;;;59.00;10.07;;;;;;;5.63;100.00;102776.03;5093253;27;20077;-74
2024/01/25 03:56:35;;;;;;;77.97;9.50;;;;;;;5.64;100.00;102769.84;5094652;27;20043;-73
2024/01/25 03:59:01;;;;;;;64.00;10.82;;;;;;;5.56;100.00;102770.81;5095142;27;20033;-74
2024/01/25 04:01:27;;;;;;;59.45;10.88;;;;;;;5.50;100.00;102774.41;5097989;27;20040;-74
2024/01/25 04:03:52;;;;;;;50.60;11.63;;;;;;;5.50;100.00;102773.53;5098482;27;20036;-74
2024/01/25 04:06:18;;;;;;;76.90;12.57;;;;;;;5.43;100.00;102776.25;5092631;27;20040;-73
2024/01/25 04:08:43;;;;;;;62.60;9.48;;;;;;;5.46;100.00;102788.56;5091908;27;20043;-74
2024/01/25 04:11:09;;;;;;;75.65;13.02;;;;;;;5.54;100.00;102784.06;5077287;27;20414;-74
2024/01/25 04:13:35;;;;;;;71.75;10.52;;;;;;;5.53;100.00;102784.97;5079873;27;20575;-74
2024/01/25 04:16:01;;;;;;;71.63;10.30;;;;;;;5.44;100.00;102793.00;5094068;27;20060;-74
2024/01/25 04:18:27;;;;;;;61.42;11.52;;;;;;;5.44;100.00;102793.88;5079571;27;20027;-74
2024/01/25 04:20:52;;;;;;;65.78;11.18;;;;;;;5.42;100.00;102793.03;5098425;27;20128;-73
2024/01/25 04:23:18;;;;;;;62.45;9.63;;;;;;;5.44;100.00;102795.66;5096702;27;20033;-73
2024/01/25 04:25:44;;;;;;;51.15;9.70;;;;;;;5.46;100.00;102805.31;5096496;27;20462;-75
2024/01/25 04:28:09;;;;;;;62.30;11.48;;;;;;;5.32;100.00;102801.97;5091136;27;20060;-74
2024/01/25 04:30:35;;;;;;;66.53;10.60;;;;;;;5.35;100.00;102804.56;5095059;27;20087;-74
2024/01/25 04:33:02;;;;;;;59.35;10.52;;;;;;;5.30;100.00;102798.44;5101056;27;20104;-74
2024/01/25 04:35:27;;;;;;;77.22;12.32;;;;;;;5.30;100.00;102797.56;5101266;27;20071;-74
2024/01/25 04:37:53;;;;;;;60.63;10.25;;;;;;;5.35;100.00;102809.84;5098301;27;20085;-74
2024/01/25 04:40:19;;;;;;;56.42;9.73;;;;;;;5.25;100.00;102810.81;5116809;27;20040;-74
2024/01/25 04:42:44;;;;;;;67.32;10.73;;;;;;;5.22;100.00;102810.88;5099978;27;20040;-75
2024/01/25 04:45:10;;;;;;;66.22;10.63;;;;;;;5.14;100.00;102816.22;5102410;27;21019;-73
2024/01/25 04:47:39;;;;;;;50.65;10.45;;;;;;;5.16;100.00;102816.19;5092577;27;20040;-73
2024/01/25 04:50:05;;;;;;;57.85;9.60;;;;;;;5.17;100.00;102817.94;5095941;27;21284;-73
2024/01/25 04:52:31;;;;;;;54.15;11.70;;;;;;;5.10;100.00;102825.06;5103164;27;21084;-73
2024/01/25 04:54:56;;;;;;;62.15;9.48;;;;;;;5.04;100.00;102824.25;5099695;27;20036;-73
2024/01/25 04:57:22;;;;;;;62.42;11.32;;;;;;;5.06;100.00;102810.09;5101573;27;20115;-73
2024/01/25 04:59:47;;;;;;;61.38;10.45;;;;;;;5.07;100.00;102810.97;5077394;27;20043;-73
2024/01/25 05:02:13;;;;;;;69.05;11.75;;;;;;;5.02;100.00;102815.44;5093461;27;20874;-73
2024/01/25 05:04:40;;;;;;;66.10;11.32;;;;;;;5.10;100.00;102809.19;5099017;27;20032;-73
2024/01/25 05:07:05;;;;;;;76.75;13.45;;;;;;;5.10;100.00;102803.03;5100827;27;20138;-73
2024/01/25 05:09:31;;;;;;;62.40;11.25;;;;;;;5.11;100.00;102813.59;5087018;27;20027;-73
2024/01/25 05:11:58;;;;;;;61.83;10.32;;;;;;;5.06;100.00;102818.03;5098148;27;20036;-73
2024/01/25 05:14:25;;;;;;;60.17;9.35;;;;;;;5.03;100.00;102822.50;5096481;27;20044;-71
2024/01/25 05:16:50;;;;;;;64.13;11.30;;;;;;;5.02;100.00;102821.63;5093063;27;20150;-72
2024/01/25 05:19:16;;;;;;;64.82;12.13;;;;;;;4.97;100.00;102819.88;5100156;27;20043;-72
2024/01/25 05:21:42;;;;;;;69.20;11.77;;;;;;;5.00;100.00;102826.03;5095871;27;20052;-74
2024/01/25 05:24:09;;;;;;;75.07;10.85;;;;;;;4.94;100.00;102826.97;5091244;27;20049;-72
2024/01/25 05:26:35;;;;;;;61.08;11.70;;;;;;;4.86;100.00;102819.97;5098139;27;20043;-72
2024/01/25 05:29:01;;;;;;;80.30;12.85;;;;;;;4.82;100.00;102819.13;5103643;27;20019;-72
2024/01/25 05:31:26;;;;;;;58.47;10.55;;;;;;;4.78;100.00;102816.53;5101028;27;20063;-72
2024/01/25 05:33:52;;;;;;;71.10;11.68;;;;;;;4.72;100.00;102811.25;5100954;27;20027;-74
2024/01/25 05:36:17;;;;;;;55.75;10.85;;;;;;;4.80;100.00;102818.25;5106075;27;20681;-72
2024/01/25 05:38:43;;;;;;;56.25;10.30;;;;;;;4.81;100.00;102822.66;5099477;27;20108;-74
2024/01/25 05:41:09;;;;;;;68.20;12.50;;;;;;;4.71;100.00;102826.25;5101092;27;20092;-73
2024/01/25 05:43:35;;;;;;;66.05;12.18;;;;;;;4.66;100.00;102821.00;5108934;27;20458;-74
2024/01/25 05:46:00;;;;;;;80.32;11.90;;;;;;;4.64;100.00;102829.84;5100531;27;20020;-73
2024/01/25 05:48:26;;;;;;;75.43;12.38;;;;;;;4.64;100.00;102828.06;5112066;27;20108;-73
2024/01/25 05:50:52;;;;;;;61.95;11.57;;;;;;;4.66;100.00;102833.31;5101177;27;20036;-73
2024/01/25 05:53:19;;;;;;;65.72;12.48;;;;;;;4.59;100.00;102832.50;5097490;27;20474;-73
2024/01/25 05:55:45;;;;;;;67.40;12.35;;;;;;;4.55;100.00;102824.59;5101270;27;20039;-74
2024/01/25 05:58:11;;;;;;;79.55;13.02;;;;;;;4.51;100.00;102836.06;5076902;27;20575;-73
2024/01/25 06:00:36;;;;;;;61.35;11.90;;;;;;;4.59;100.00;102842.19;5099090;27;20416;-74
2024/01/25 06:03:02;;;;;;;92.25;14.60;;;;;;;4.57;100.00;102855.41;5103062;27;20488;-74
2024/01/25 06:05:27;;;;;;;66.90;11.10;;;;;;;4.70;100.00;102858.84;5099923;27;20074;-73
2024/01/25 06:07:53;;;;;;;75.32;12.45;;;;;;;4.66;100.00;102865.03;5102420;27;20024;-73
2024/01/25 06:10:19;;;;;;;66.47;12.75;;;;;;;4.64;100.00;102861.53;5111077;27;20440;-75
2024/01/25 06:12:44;;;;;;;71.15;11.57;;;;;;;4.78;100.00;102853.53;5101389;27;20051;-74
2024/01/25 06:15:10;;;;;;;60.47;12.25;;;;;;;4.78;100.00;102859.69;5086327;27;20075;-74
2024/01/25 06:17:35;;;;;;;66.10;10.93;;;;;;;4.69;100.00;102867.66;5094349;27;20027;-73
2024/01/25 06:20:02;;;;;;;67.80;12.93;;;;;;;4.67;100.00;102859.75;5094553;27;20032;-74
2024/01/25 06:22:28;;;;;;;62.30;11.23;;;;;;;4.67;100.00;102861.53;5095295;27;20028;-74
2024/01/25 06:24:53;;;;;;;60.92;11.27;;;;;;;4.60;100.00;102860.66;5093647;27;20038;-74
2024/01/25 06:27:19;;;;;;;73.50;13.45;;;;;;;4.50;100.00;102866.03;5093045;27;20580;-73
2024/01/25 06:29:44;;;;;;;70.35;13.48;;;;;;;4.48;100.00;102873.09;5095672;27;20528;-73
2024/01/25 06:32:10;;;;;;;70.68;13.43;;;;;;;4.54;100.00;102881.84;5093389;27;20036;-73
2024/01/25 06:34:36;;;;;;;76.72;13.00;;;;;;;4.44;100.00;102881.91;5097035;27;20036;-73
2024/01/25 06:37:01;;;;;;;72.85;14.20;;;;;;;4.40;100.00;102878.41;5096907;27;20888;-72
2024/01/25 06:39:27;;;;;;;60.10;12.48;;;;;;;4.47;100.00;102871.31;5093592;27;20031;-72
2024/01/25 06:41:52;;;;;;;65.20;13.85;;;;;;;4.43;100.00;102888.09;5091972;27;20040;-73
2024/01/25 06:44:18;;;;;;;74.38;13.48;;;;;;;4.50;100.00;102887.16;5098867;27;20028;-72
2024/01/25 06:46:44;;;;;;;70.65;13.07;;;;;;;4.45;100.00;102879.25;5094606;27;20056;-75
2024/01/25 06:49:10;;;;;;;70.28;14.32;;;;;;;4.36;100.00;102880.16;5101782;27;20113;-72
2024/01/25 06:51:35;;;;;;;87.18;15.20;;;;;;;4.35;100.00;102880.19;5096979;27;20030;-72
2024/01/25 06:54:01;;;;;;;84.15;15.15;;;;;;;4.39;100.00;102876.66;5074242;27;20560;-72
2024/01/25 06:56:26;;;;;;;88.88;14.52;;;;;;;4.47;100.00;102874.84;5072922;27;20643;-75
2024/01/25 06:58:52;;;;;;;72.22;15.20;;;;;;;4.41;100.00;102883.66;5099052;27;20028;-73
2024/01/25 07:01:22;;;;;;;76.60;13.43;;;;;;;4.45;100.00;102886.28;5074500;27;20033;-72
2024/01/25 07:03:48;;;;;;;78.90;14.70;;;;;;;4.41;100.00;102875.72;5066971;27;20060;-74
2024/01/25 07:06:13;;;;;;;88.50;15.05;;;;;;;4.43;100.00;102878.38;5095631;27;20946;-71
2024/01/25 07:08:39;;;;;;;89.80;15.80;;;;;;;4.41;100.00;102874.84;5097880;27;20298;-75
2024/01/25 07:11:07;;;;;;;67.43;14.25;;;;;;;4.49;100.00;102874.84;5086643;27;20893;-73
2024/01/25 07:13:34;;;;;;;69.70;13.98;;;;;;;4.47;100.00;102882.78;5058220;27;20035;-73
2024/01/25 07:16:00;;;;;;;86.05;14.60;;;;;;;4.50;100.00;102890.66;5097040;27;20027;-73
2024/01/25 07:18:25;;;;;;;69.05;13.90;;;;;;;4.61;100.00;102886.19;5091688;27;20024;-74
2024/01/25 07:20:51;;;;;;;55.70;12.30;;;;;;;4.65;100.00;102889.72;5099507;27;20473;-74
2024/01/25 07:23:17;;;;;;;94.15;14.95;;;;;;;4.59;100.00;102874.78;5077294;27;20036;-73
2024/01/25 07:25:43;;;;;;;71.15;12.75;;;;;;;4.62;100.00;102879.19;5084999;27;20025;-74
2024/01/25 07:28:08;;;;;;;77.03;16.02;;;;;;;4.53;100.00;102876.59;5091563;27;20608;-74
2024/01/25 07:30:34;;;;;;;74.60;13.52;;;;;;;4.53;100.00;102871.31;5099779;27;20803;-73
2024/01/25 07:33:01;;;;;;;87.85;14.75;;;;;;;4.63;100.00;102887.09;5080120;27;20023;-73
2024/01/25 07:35:26;;;;;;;70.30;13.63;;;;;;;4.64;100.00;102880.03;5084281;27;20024;-74
2024/01/25 07:37:52;;;;;;;76.05;14.32;;;;;;;4.64;100.00;102880.03;5087498;27;20053;-74
2024/01/25 07:40:18;;;;;;;85.68;14.18;;;;;;;4.57;100.00;102889.78;5093748;27;20148;-74
2024/01/25 07:42:43;;;;;;;72.82;14.80;;;;;;;4.67;100.00;102891.47;5102700;27;20032;-74
2024/01/25 07:45:09;;;;;;;66.38;13.02;;;;;;;4.59;100.00;102897.69;5095824;27;20031;-73
2024/01/25 07:47:35;;;;;;;61.75;12.50;;;;;;;4.68;100.00;102900.28;5097983;27;20032;-73
2024/01/25 07:50:01;;;;;;;62.22;12.27;;;;;;;4.65;100.00;102898.50;5091141;27;20043;-73
2024/01/25 07:52:26;;;;;;;77.88;13.00;;;;;;;4.71;100.00;102896.72;5084117;27;20075;-74
2024/01/25 07:54:53;;;;;;;67.97;14.02;;;;;;;4.73;100.00;102893.19;5091468;27;20036;-74
2024/01/25 07:57:19;;;;;;;80.07;15.10;;;;;;;4.74;100.00;102894.06;5110302;27;20151;-74
2024/01/25 07:59:45;;;;;;;73.22;15.60;;;;;;;4.74;100.00;102894.06;5096978;27;20032;-73
2024/01/25 08:02:10;;;;;;;69.57;15.10;;;;;;;4.77;100.00;102901.97;5092335;27;20037;-73
2024/01/25 08:04:36;;;;;;;57.78;12.93;;;;;;;4.80;100.00;102896.66;5101446;27;20047;-73
2024/01/25 08:07:02;;;;;;;50.95;13.13;;;;;;;4.79;100.00;102893.16;5090680;27;20029;-74
2024/01/25 08:09:27;;;;;;;75.82;14.70;;;;;;;4.82;100.00;102911.66;5090222;27;20826;-74
2024/01/25 08:11:53;;;;;;;72.43;18.25;;;;;;;4.80;100.00;102909.88;5100163;27;20040;-74
2024/01/25 08:14:19;;;;;;;82.43;16.42;;;;;;;4.86;100.00;102902.78;5078380;27;20021;-74
2024/01/25 08:16:45;;;;;;;71.57;15.35;;;;;;;4.90;100.00;102904.53;5094158;27;20118;-74
2024/01/25 08:19:10;;;;;;;80.53;16.08;;;;;;;4.90;100.00;102904.53;5093513;27;20049;-74
2024/01/25 08:21:36;;;;;;;80.03;15.15;;;;;;;4.91;100.00;102887.78;5075992;27;20067;-73
2024/01/25 08:24:06;;;;;;;72.45;16.33;;;;;;;4.90;100.00;102886.03;5092763;27;20142;-74
2024/01/25 08:26:32;;;;;;;66.40;13.40;;;;;;;4.89;100.00;102878.13;5098516;27;20054;-73
2024/01/25 08:28:57;;;;;;;66.22;13.68;;;;;;;4.59;100.00;102887.97;5099931;27;20517;-74
2024/01/25 08:31:23;;;;;;;71.00;13.93;;;;;;;4.57;100.00;102899.47;5086798;27;20517;-74
2024/01/25 08:33:48;;;;;;;69.30;15.65;;;;;;;4.62;100.00;102900.31;5092981;27;20716;-74
2024/01/25 08:36:18;;;;;;;71.07;14.35;;;;;;;4.82;100.00;102914.28;5101685;27;20040;-74
2024/01/25 08:38:44;;;;;;;65.32;13.82;;;;;;;5.01;100.00;102927.38;5073688;27;20041;-74
2024/01/25 08:41:11;;;;;;;68.70;13.77;;;;;;;5.12;100.00;102912.31;5095782;27;20039;-73
2024/01/25 08:43:36;;;;;;;83.72;15.25;;;;;;;5.19;100.00;102914.03;5092835;27;20037;-74
2024/01/25 08:46:02;;;;;;;63.20;15.02;;;;;;;5.26;100.00;102917.50;5075549;27;20794;-74
2024/01/25 08:48:30;;;;;;;76.40;15.30;;;;;;;5.34;100.00;102916.56;5113018;27;20047;-75
2024/01/25 08:50:55;;;;;;;70.63;13.13;;;;;;;5.37;100.00;102916.53;5096533;27;20024;-74
2024/01/25 08:53:22;;;;;;;79.45;17.40;;;;;;;5.19;100.00;102906.09;5099810;27;20513;-75
2024/01/25 08:55:48;;;;;;;57.28;13.93;;;;;;;5.16;100.00;102906.09;5098519;27;20035;-74
2024/01/25 08:58:14;;;;;;;68.40;17.13;;;;;;;5.35;100.00;102913.00;5097775;27;21312;-74
2024/01/25 09:00:40;;;;;;;65.40;14.25;;;;;;;5.54;100.00;102918.16;5100716;27;20419;-73
2024/01/25 09:03:06;;;;;;;87.35;15.88;;;;;;;5.64;100.00;102909.25;5091859;27;20036;-73
2024/01/25 09:05:34;;;;;;;73.30;16.90;;;;;;;5.65;100.00;102916.28;5076323;27;20043;-74
2024/01/25 09:08:00;;;;;;;73.30;16.02;;;;;;;5.69;100.00;102916.25;5106799;27;20084;-74
2024/01/25 09:10:25;;;;;;;82.95;17.23;;;;;;;5.84;100.00;102915.22;5097634;27;20063;-73
2024/01/25 09:12:51;;;;;;;80.25;17.77;;;;;;;5.88;100.00;102911.63;5100991;27;20028;-74
2024/01/25 09:15:16;;;;;;;72.68;14.75;;;;;;;5.97;100.00;102910.69;5087626;27;20106;-74
2024/01/25 09:17:43;;;;;;;71.55;16.77;;;;;;;6.04;100.00;102908.84;5082463;27;20411;-73
2024/01/25 09:20:10;;;;;;;72.13;16.50;;;;;;;6.19;100.00;102906.91;5106155;27;20035;-73
2024/01/25 09:22:36;;;;;;;69.93;15.60;;;;;;;6.31;100.00;102912.94;5095459;27;20028;-73
2024/01/25 09:25:10;;;;;;;75.53;15.88;;;;;;;6.33;100.00;102917.34;5100354;27;20128;-73
2024/01/25 09:27:36;;;;;;;79.50;17.65;;;;;;;6.24;100.00;102917.44;5102779;27;20045;-73
2024/01/25 09:30:02;;;;;;;78.88;16.00;;;;;;;6.23;100.00;102919.22;5096958;27;20025;-73
2024/01/25 09:32:27;;;;;;;59.05;15.88;;;;;;;6.36;100.00;102917.28;5083109;27;20323;-73
2024/01/25 09:34:54;;;;;;;71.28;15.15;;;;;;;6.35;100.00;102915.53;5099824;27;20816;-73
2024/01/25 09:37:22;;;;;;;69.90;14.57;;;;;;;6.39;100.00;102904.00;5092316;27;20037;-73
2024/01/25 09:39:47;;;;;;;67.05;16.25;;;;;;;6.53;100.00;102892.38;5083132;27;20023;-74
2024/01/25 09:42:13;;;;;;;70.13;16.30;;;;;;;6.55;100.00;102901.16;5100243;27;20039;-73
2024/01/25 09:44:40;;;;;;;74.10;15.48;;;;;;;6.43;100.00;102923.41;5094867;27;20055;-74
2024/01/25 09:47:08;;;;;;;87.90;16.80;;;;;;;6.64;100.00;102924.91;5093918;27;20040;-72
2024/01/25 09:49:34;;;;;;;69.05;16.55;;;;;;;6.74;100.00;102915.91;5102398;27;20035;-74
2024/01/25 09:52:05;;;;;;;66.90;15.68;;;;;;;6.78;100.00;102917.63;5079779;27;20044;-74
2024/01/25 09:54:35;;;;;;;61.15;15.48;;;;;;;6.82;100.00;102918.44;5100989;27;20890;-72
2024/01/25 09:57:08;;;;;;;71.38;17.33;;;;;;;6.91;100.00;102920.97;5101606;27;20028;-75
2024/01/25 09:59:34;;;;;;;78.40;14.52;;;;;;;6.97;100.00;102920.88;5092607;27;20047;-74
2024/01/25 10:02:01;;;;;;;66.80;17.50;;;;;;;6.94;100.00;102916.50;5094863;27;20040;-75
2024/01/25 10:04:27;;;;;;;68.75;17.38;;;;;;;6.94;100.00;102903.25;5101342;27;20040;-72
2024/01/25 10:06:56;;;;;;;67.05;16.23;;;;;;;7.06;100.00;102885.38;5095512;27;20024;-74
2024/01/25 10:09:22;;;;;;;72.82;15.80;;;;;;;7.05;100.00;102881.88;5075739;27;20036;-72
2024/01/25 10:11:48;;;;;;;62.58;15.95;;;;;;;7.11;100.00;102881.75;5096941;27;20024;-74
2024/01/25 10:14:14;;;;;;;61.03;16.05;;;;;;;7.18;100.00;102879.91;5096763;27;20142;-72
2024/01/25 10:16:39;;;;;;;67.38;15.15;;;;;;;7.14;100.00;102878.19;5097023;27;20028;-74
2024/01/25 10:19:08;;;;;;;60.67;15.18;;;;;;;7.32;100.00;102877.88;5095956;27;20028;-72
2024/01/25 10:21:36;;;;;;;60.35;14.63;;;;;;;7.43;100.00;102873.28;5104192;27;20054;-74
2024/01/25 10:24:03;;;;;;;71.10;14.80;;;;;;;7.53;100.00;102869.56;5097785;27;20028;-74
2024/01/25 10:26:31;;;;;;;64.60;15.02;;;;;;;7.68;100.00;102872.81;5089001;27;20024;-72
2024/01/25 10:28:56;;;;;;;70.22;15.32;;;;;;;7.70;100.00;102865.69;5096556;27;21029;-74
2024/01/25 10:31:25;;;;;;;80.10;14.82;;;;;;;7.65;100.00;102860.47;5095364;27;20035;-74
2024/01/25 10:33:54;;;;;;;78.38;14.82;;;;;;;7.67;100.00;102861.31;5097588;27;20032;-74
2024/01/25 10:36:21;;;;;;;71.78;15.50;;;;;;;7.78;100.00;102864.66;5105504;27;20039;-74
2024/01/25 10:38:50;;;;;;;77.78;15.77;;;;;;;7.82;100.00;102867.25;5100444;27;20048;-74
2024/01/25 10:41:15;;;;;;;78.18;16.02;;;;;;;7.89;100.00;102866.22;5103630;27;20067;-74
2024/01/25 10:43:41;;;;;;;72.53;17.70;;;;;;;7.92;100.00;102875.00;5100426;27;20044;-74
2024/01/25 10:46:08;;;;;;;59.50;15.52;;;;;;;8.01;100.00;102871.28;5098087;27;20028;-74
2024/01/25 10:48:38;;;;;;;75.88;17.17;;;;;;;8.11;100.00;102879.94;5096736;27;20035;-74
2024/01/25 10:51:05;;;;;;;69.53;18.40;;;;;;;8.02;100.00;102879.22;5083827;27;20058;-73
2024/01/25 10:53:35;;;;;;;57.22;14.40;;;;;;;8.09;100.00;102866.72;5096772;27;20032;-73
2024/01/25 10:56:02;;;;;;;75.25;17.48;;;;;;;8.26;100.00;102861.03;5105413;27;20035;-73
2024/01/25 10:58:33;;;;;;;63.28;15.95;;;;;;;8.25;100.00;102853.97;5076575;27;21018;-73
2024/01/25 11:00:59;;;;;;;70.22;16.83;;;;;;;8.29;100.00;102850.34;5082840;27;20055;-73
2024/01/25 11:03:30;;;;;;;58.00;16.08;;;;;;;8.26;100.00;102840.63;5090717;27;20067;-73